Terminal Aerodrome Forecast
Issued by NWS

Home | Current Version | Previous Version | Text Only | Print | Product List | Glossary On
Versions: 1 2 3 4 5 6 7 8 9 10 11 12 13 14 15 16 17 18
000
FTUS42 KTBW 101100
TAFLAL
TAF
KLAL 101121Z 1012/1112 VRB02KT P6SM FEW025 SCT250
     FM101600 VRB05KT P6SM VCTS FEW025CB SCT035 BKN090
     FM110000 15005KT P6SM FEW035 SCT100 BKN150
     FM110400 VRB02KT P6SM FEW030 BKN250=

USA.gov is the U.S. government's official web portal to all federal, state and local government web resources and services.